sensor_id;sensor_type;location;lat;lon;timestamp;P1;durP1;ratioP1;P2;durP2;ratioP2
21860;SDS011;11095;48.066;8.540;2022-12-31T00:01:41;1.23;;;0.88;;
21860;SDS011;11095;48.066;8.540;2022-12-31T00:04:07;1.15;;;1.00;;
21860;SDS011;11095;48.066;8.540;2022-12-31T00:06:33;1.10;;;1.00;;
21860;SDS011;11095;48.066;8.540;2022-12-31T00:09:02;1.30;;;0.98;;
21860;SDS011;11095;48.066;8.540;2022-12-31T00:11:29;1.00;;;0.90;;
21860;SDS011;11095;48.066;8.540;2022-12-31T00:13:55;0.85;;;0.80;;
21860;SDS011;11095;48.066;8.540;2022-12-31T00:16:26;0.80;;;0.80;;
21860;SDS011;11095;48.066;8.540;2022-12-31T00:18:58;0.70;;;0.70;;
21860;SDS011;11095;48.066;8.540;2022-12-31T00:21:25;1.13;;;0.80;;
21860;SDS011;11095;48.066;8.540;2022-12-31T00:23:52;0.75;;;0.70;;
21860;SDS011;11095;48.066;8.540;2022-12-31T00:26:19;1.00;;;0.90;;
21860;SDS011;11095;48.066;8.540;2022-12-31T00:28:46;1.00;;;0.90;;
21860;SDS011;11095;48.066;8.540;2022-12-31T00:31:16;1.65;;;0.82;;
21860;SDS011;11095;48.066;8.540;2022-12-31T00:33:45;0.88;;;0.85;;
21860;SDS011;11095;48.066;8.540;2022-12-31T00:38:37;0.95;;;0.85;;
21860;SDS011;11095;48.066;8.540;2022-12-31T00:41:04;1.10;;;0.82;;
21860;SDS011;11095;48.066;8.540;2022-12-31T00:43:30;1.05;;;0.93;;
21860;SDS011;11095;48.066;8.540;2022-12-31T00:45:56;1.27;;;1.00;;
21860;SDS011;11095;48.066;8.540;2022-12-31T00:48:21;1.02;;;0.90;;
21860;SDS011;11095;48.066;8.540;2022-12-31T00:50:47;0.90;;;0.90;;
21860;SDS011;11095;48.066;8.540;2022-12-31T00:53:13;1.15;;;0.77;;
21860;SDS011;11095;48.066;8.540;2022-12-31T00:55:40;1.50;;;0.90;;
21860;SDS011;11095;48.066;8.540;2022-12-31T00:58:05;1.35;;;0.82;;
21860;SDS011;11095;48.066;8.540;2022-12-31T01:00:31;1.13;;;1.00;;
21860;SDS011;11095;48.066;8.540;2022-12-31T01:02:57;1.23;;;1.00;;
21860;SDS011;11095;48.066;8.540;2022-12-31T01:05:22;1.52;;;1.10;;
21860;SDS011;11095;48.066;8.540;2022-12-31T01:07:48;1.17;;;1.08;;
21860;SDS011;11095;48.066;8.540;2022-12-31T01:10:13;1.77;;;0.93;;
21860;SDS011;11095;48.066;8.540;2022-12-31T01:12:59;1.30;;;0.90;;
21860;SDS011;11095;48.066;8.540;2022-12-31T01:15:25;3.25;;;1.05;;
21860;SDS011;11095;48.066;8.540;2022-12-31T01:17:50;1.13;;;0.95;;
21860;SDS011;11095;48.066;8.540;2022-12-31T01:20:16;1.63;;;1.10;;
21860;SDS011;11095;48.066;8.540;2022-12-31T01:22:42;1.45;;;1.00;;
21860;SDS011;11095;48.066;8.540;2022-12-31T01:25:07;1.13;;;1.00;;
21860;SDS011;11095;48.066;8.540;2022-12-31T01:27:33;1.38;;;0.95;;
21860;SDS011;11095;48.066;8.540;2022-12-31T01:29:59;1.20;;;1.00;;
21860;SDS011;11095;48.066;8.540;2022-12-31T01:32:24;0.95;;;0.90;;
21860;SDS011;11095;48.066;8.540;2022-12-31T01:34:50;3.45;;;0.90;;
21860;SDS011;11095;48.066;8.540;2022-12-31T01:37:15;1.17;;;1.00;;
21860;SDS011;11095;48.066;8.540;2022-12-31T01:39:41;1.63;;;1.15;;
21860;SDS011;11095;48.066;8.540;2022-12-31T01:42:09;1.13;;;0.93;;
21860;SDS011;11095;48.066;8.540;2022-12-31T01:47:04;2.17;;;0.90;;
21860;SDS011;11095;48.066;8.540;2022-12-31T01:49:38;0.90;;;0.90;;
21860;SDS011;11095;48.066;8.540;2022-12-31T01:52:12;2.35;;;0.90;;
21860;SDS011;11095;48.066;8.540;2022-12-31T01:54:55;1.85;;;0.85;;
21860;SDS011;11095;48.066;8.540;2022-12-31T01:57:30;0.88;;;0.82;;
21860;SDS011;11095;48.066;8.540;2022-12-31T01:59:56;1.10;;;0.80;;
21860;SDS011;11095;48.066;8.540;2022-12-31T02:02:24;0.82;;;0.80;;
21860;SDS011;11095;48.066;8.540;2022-12-31T02:04:50;0.70;;;0.70;;
21860;SDS011;11095;48.066;8.540;2022-12-31T02:07:19;1.02;;;0.80;;
21860;SDS011;11095;48.066;8.540;2022-12-31T02:09:45;0.73;;;0.73;;
21860;SDS011;11095;48.066;8.540;2022-12-31T02:12:11;0.90;;;0.90;;
21860;SDS011;11095;48.066;8.540;2022-12-31T02:14:38;1.70;;;0.80;;
21860;SDS011;11095;48.066;8.540;2022-12-31T02:30:49;1.73;;;1.00;;
21860;SDS011;11095;48.066;8.540;2022-12-31T02:33:34;0.70;;;0.70;;
21860;SDS011;11095;48.066;8.540;2022-12-31T02:36:05;1.45;;;0.80;;
21860;SDS011;11095;48.066;8.540;2022-12-31T02:38:38;1.58;;;0.90;;
21860;SDS011;11095;48.066;8.540;2022-12-31T02:41:11;1.25;;;1.00;;
21860;SDS011;11095;48.066;8.540;2022-12-31T02:44:00;2.55;;;1.20;;
21860;SDS011;11095;48.066;8.540;2022-12-31T02:46:40;1.00;;;0.90;;
21860;SDS011;11095;48.066;8.540;2022-12-31T02:51:43;1.02;;;0.90;;
21860;SDS011;11095;48.066;8.540;2022-12-31T02:54:20;1.45;;;1.10;;
21860;SDS011;11095;48.066;8.540;2022-12-31T02:57:04;1.55;;;1.10;;
21860;SDS011;11095;48.066;8.540;2022-12-31T03:00:02;1.42;;;1.00;;
21860;SDS011;11095;48.066;8.540;2022-12-31T03:02:48;1.10;;;0.90;;
21860;SDS011;11095;48.066;8.540;2022-12-31T03:05:16;1.42;;;1.20;;
21860;SDS011;11095;48.066;8.540;2022-12-31T03:07:46;1.27;;;1.00;;
21860;SDS011;11095;48.066;8.540;2022-12-31T03:10:12;3.60;;;1.10;;
21860;SDS011;11095;48.066;8.540;2022-12-31T03:12:38;2.05;;;0.90;;
21860;SDS011;11095;48.066;8.540;2022-12-31T03:20:24;1.23;;;0.93;;
21860;SDS011;11095;48.066;8.540;2022-12-31T03:23:15;1.63;;;1.00;;
21860;SDS011;11095;48.066;8.540;2022-12-31T03:25:43;0.98;;;0.98;;
21860;SDS011;11095;48.066;8.540;2022-12-31T03:28:15;1.45;;;0.90;;
21860;SDS011;11095;48.066;8.540;2022-12-31T03:30:43;2.72;;;1.00;;
21860;SDS011;11095;48.066;8.540;2022-12-31T03:35:39;2.50;;;1.20;;
21860;SDS011;11095;48.066;8.540;2022-12-31T03:38:06;1.38;;;0.90;;
21860;SDS011;11095;48.066;8.540;2022-12-31T03:40:35;1.75;;;1.30;;
21860;SDS011;11095;48.066;8.540;2022-12-31T03:43:03;1.58;;;1.20;;
21860;SDS011;11095;48.066;8.540;2022-12-31T03:45:28;1.02;;;0.93;;
21860;SDS011;11095;48.066;8.540;2022-12-31T03:47:54;1.23;;;1.10;;
21860;SDS011;11095;48.066;8.540;2022-12-31T03:50:20;1.27;;;0.90;;
21860;SDS011;11095;48.066;8.540;2022-12-31T03:52:46;1.08;;;0.98;;
21860;SDS011;11095;48.066;8.540;2022-12-31T03:55:11;1.20;;;1.10;;
21860;SDS011;11095;48.066;8.540;2022-12-31T03:57:38;1.30;;;1.13;;
21860;SDS011;11095;48.066;8.540;2022-12-31T04:00:05;1.95;;;1.15;;
21860;SDS011;11095;48.066;8.540;2022-12-31T04:02:32;1.20;;;1.00;;
21860;SDS011;11095;48.066;8.540;2022-12-31T04:04:58;1.27;;;1.17;;
21860;SDS011;11095;48.066;8.540;2022-12-31T04:07:23;1.30;;;1.20;;
21860;SDS011;11095;48.066;8.540;2022-12-31T04:09:49;1.48;;;1.05;;
21860;SDS011;11095;48.066;8.540;2022-12-31T04:12:14;1.15;;;0.90;;
21860;SDS011;11095;48.066;8.540;2022-12-31T04:14:40;0.75;;;0.75;;
21860;SDS011;11095;48.066;8.540;2022-12-31T04:17:06;1.13;;;0.90;;
21860;SDS011;11095;48.066;8.540;2022-12-31T04:19:31;1.42;;;0.90;;
21860;SDS011;11095;48.066;8.540;2022-12-31T04:21:57;0.77;;;0.77;;
21860;SDS011;11095;48.066;8.540;2022-12-31T04:24:23;1.58;;;0.82;;
21860;SDS011;11095;48.066;8.540;2022-12-31T04:26:48;0.80;;;0.80;;
21860;SDS011;11095;48.066;8.540;2022-12-31T04:29:14;0.95;;;0.90;;
21860;SDS011;11095;48.066;8.540;2022-12-31T04:31:40;1.05;;;0.80;;
21860;SDS011;11095;48.066;8.540;2022-12-31T04:34:05;0.70;;;0.70;;
21860;SDS011;11095;48.066;8.540;2022-12-31T04:36:31;1.00;;;0.90;;
21860;SDS011;11095;48.066;8.540;2022-12-31T04:38:57;1.27;;;0.70;;
21860;SDS011;11095;48.066;8.540;2022-12-31T04:41:23;0.70;;;0.70;;
21860;SDS011;11095;48.066;8.540;2022-12-31T04:43:55;0.85;;;0.80;;
21860;SDS011;11095;48.066;8.540;2022-12-31T04:46:23;0.70;;;0.70;;
21860;SDS011;11095;48.066;8.540;2022-12-31T04:48:51;0.82;;;0.82;;
21860;SDS011;11095;48.066;8.540;2022-12-31T04:51:16;1.42;;;0.70;;
21860;SDS011;11095;48.066;8.540;2022-12-31T04:53:42;0.70;;;0.70;;
21860;SDS011;11095;48.066;8.540;2022-12-31T04:56:08;1.17;;;0.82;;
21860;SDS011;11095;48.066;8.540;2022-12-31T04:58:34;1.00;;;0.90;;
21860;SDS011;11095;48.066;8.540;2022-12-31T05:01:01;1.20;;;0.80;;
21860;SDS011;11095;48.066;8.540;2022-12-31T05:03:27;0.95;;;0.85;;
21860;SDS011;11095;48.066;8.540;2022-12-31T05:05:53;0.82;;;0.82;;
21860;SDS011;11095;48.066;8.540;2022-12-31T05:08:23;0.90;;;0.75;;
21860;SDS011;11095;48.066;8.540;2022-12-31T05:10:49;1.10;;;0.90;;
21860;SDS011;11095;48.066;8.540;2022-12-31T05:13:15;0.80;;;0.80;;
21860;SDS011;11095;48.066;8.540;2022-12-31T05:15:40;1.30;;;0.90;;
21860;SDS011;11095;48.066;8.540;2022-12-31T05:18:07;1.27;;;0.93;;
21860;SDS011;11095;48.066;8.540;2022-12-31T05:20:33;1.40;;;1.02;;
21860;SDS011;11095;48.066;8.540;2022-12-31T05:22:59;1.10;;;1.00;;
21860;SDS011;11095;48.066;8.540;2022-12-31T05:25:25;1.27;;;1.17;;
21860;SDS011;11095;48.066;8.540;2022-12-31T05:27:51;2.15;;;1.17;;
21860;SDS011;11095;48.066;8.540;2022-12-31T05:30:17;1.98;;;1.20;;
21860;SDS011;11095;48.066;8.540;2022-12-31T05:32:43;1.00;;;1.00;;
21860;SDS011;11095;48.066;8.540;2022-12-31T05:35:09;1.30;;;1.20;;
21860;SDS011;11095;48.066;8.540;2022-12-31T05:37:35;1.40;;;1.30;;
21860;SDS011;11095;48.066;8.540;2022-12-31T05:40:01;1.42;;;1.33;;
21860;SDS011;11095;48.066;8.540;2022-12-31T05:42:27;2.13;;;1.25;;
21860;SDS011;11095;48.066;8.540;2022-12-31T05:44:53;2.30;;;1.50;;
21860;SDS011;11095;48.066;8.540;2022-12-31T05:47:18;1.45;;;1.30;;
21860;SDS011;11095;48.066;8.540;2022-12-31T05:49:44;2.25;;;1.50;;
21860;SDS011;11095;48.066;8.540;2022-12-31T05:52:10;2.15;;;1.30;;
21860;SDS011;11095;48.066;8.540;2022-12-31T05:54:36;1.30;;;1.20;;
21860;SDS011;11095;48.066;8.540;2022-12-31T05:57:02;2.20;;;1.35;;
21860;SDS011;11095;48.066;8.540;2022-12-31T05:59:28;2.80;;;1.30;;
21860;SDS011;11095;48.066;8.540;2022-12-31T06:01:54;1.40;;;1.30;;
21860;SDS011;11095;48.066;8.540;2022-12-31T06:04:20;1.48;;;1.20;;
21860;SDS011;11095;48.066;8.540;2022-12-31T06:06:46;1.20;;;1.10;;
21860;SDS011;11095;48.066;8.540;2022-12-31T06:09:12;1.30;;;1.20;;
21860;SDS011;11095;48.066;8.540;2022-12-31T06:11:39;2.05;;;1.30;;
21860;SDS011;11095;48.066;8.540;2022-12-31T06:14:05;1.48;;;1.38;;
21860;SDS011;11095;48.066;8.540;2022-12-31T06:16:30;2.08;;;1.27;;
21860;SDS011;11095;48.066;8.540;2022-12-31T06:18:56;2.63;;;1.30;;
21860;SDS011;11095;48.066;8.540;2022-12-31T06:21:22;2.15;;;1.30;;
21860;SDS011;11095;48.066;8.540;2022-12-31T06:23:47;1.40;;;1.30;;
21860;SDS011;11095;48.066;8.540;2022-12-31T06:26:13;1.20;;;1.10;;
21860;SDS011;11095;48.066;8.540;2022-12-31T06:28:40;1.23;;;0.90;;
21860;SDS011;11095;48.066;8.540;2022-12-31T06:31:07;1.33;;;1.13;;
21860;SDS011;11095;48.066;8.540;2022-12-31T06:33:35;0.75;;;0.75;;
21860;SDS011;11095;48.066;8.540;2022-12-31T06:36:02;0.98;;;0.90;;
21860;SDS011;11095;48.066;8.540;2022-12-31T06:38:31;1.13;;;0.90;;
21860;SDS011;11095;48.066;8.540;2022-12-31T06:41:16;1.42;;;1.00;;
21860;SDS011;11095;48.066;8.540;2022-12-31T06:43:42;1.85;;;1.10;;
21860;SDS011;11095;48.066;8.540;2022-12-31T06:46:10;1.65;;;1.40;;
21860;SDS011;11095;48.066;8.540;2022-12-31T06:48:37;1.38;;;1.27;;
21860;SDS011;11095;48.066;8.540;2022-12-31T06:51:07;2.38;;;1.30;;
21860;SDS011;11095;48.066;8.540;2022-12-31T06:53:34;2.35;;;1.15;;
21860;SDS011;11095;48.066;8.540;2022-12-31T06:56:07;1.20;;;1.02;;
21860;SDS011;11095;48.066;8.540;2022-12-31T06:58:44;1.30;;;1.20;;
21860;SDS011;11095;48.066;8.540;2022-12-31T07:03:39;1.15;;;1.05;;
21860;SDS011;11095;48.066;8.540;2022-12-31T07:06:13;1.15;;;1.00;;
21860;SDS011;11095;48.066;8.540;2022-12-31T07:08:48;1.25;;;1.15;;
21860;SDS011;11095;48.066;8.540;2022-12-31T07:11:21;2.53;;;1.30;;
21860;SDS011;11095;48.066;8.540;2022-12-31T07:21:48;2.47;;;1.75;;
21860;SDS011;11095;48.066;8.540;2022-12-31T07:24:15;2.55;;;1.80;;
21860;SDS011;11095;48.066;8.540;2022-12-31T07:37:41;2.80;;;1.65;;
21860;SDS011;11095;48.066;8.540;2022-12-31T07:40:37;2.47;;;1.70;;
21860;SDS011;11095;48.066;8.540;2022-12-31T07:43:41;2.10;;;1.58;;
21860;SDS011;11095;48.066;8.540;2022-12-31T07:49:11;2.35;;;1.75;;
21860;SDS011;11095;48.066;8.540;2022-12-31T07:51:38;1.65;;;1.55;;
21860;SDS011;11095;48.066;8.540;2022-12-31T07:54:04;1.95;;;1.80;;
21860;SDS011;11095;48.066;8.540;2022-12-31T07:56:30;2.15;;;1.50;;
21860;SDS011;11095;48.066;8.540;2022-12-31T08:01:49;1.85;;;1.20;;
21860;SDS011;11095;48.066;8.540;2022-12-31T08:04:17;1.33;;;1.20;;
21860;SDS011;11095;48.066;8.540;2022-12-31T08:06:56;1.40;;;1.30;;
21860;SDS011;11095;48.066;8.540;2022-12-31T08:12:08;2.05;;;1.20;;
21860;SDS011;11095;48.066;8.540;2022-12-31T08:14:36;2.38;;;1.20;;
21860;SDS011;11095;48.066;8.540;2022-12-31T08:17:12;2.33;;;1.30;;
21860;SDS011;11095;48.066;8.540;2022-12-31T08:19:39;1.63;;;1.52;;
21860;SDS011;11095;48.066;8.540;2022-12-31T08:39:02;2.53;;;1.60;;
21860;SDS011;11095;48.066;8.540;2022-12-31T08:41:50;2.17;;;1.05;;
21860;SDS011;11095;48.066;8.540;2022-12-31T08:49:33;1.42;;;1.02;;
21860;SDS011;11095;48.066;8.540;2022-12-31T08:52:00;1.00;;;0.90;;
21860;SDS011;11095;48.066;8.540;2022-12-31T08:54:26;1.27;;;1.08;;
21860;SDS011;11095;48.066;8.540;2022-12-31T09:05:25;3.30;;;1.13;;
21860;SDS011;11095;48.066;8.540;2022-12-31T09:08:15;1.83;;;1.30;;
21860;SDS011;11095;48.066;8.540;2022-12-31T09:13:36;2.30;;;1.63;;
21860;SDS011;11095;48.066;8.540;2022-12-31T09:16:35;1.98;;;1.52;;
21860;SDS011;11095;48.066;8.540;2022-12-31T09:19:07;2.20;;;1.30;;
21860;SDS011;11095;48.066;8.540;2022-12-31T09:21:35;1.60;;;1.10;;
21860;SDS011;11095;48.066;8.540;2022-12-31T09:24:02;2.42;;;1.20;;
21860;SDS011;11095;48.066;8.540;2022-12-31T09:34:55;1.58;;;1.05;;
21860;SDS011;11095;48.066;8.540;2022-12-31T09:37:49;1.63;;;1.17;;
21860;SDS011;11095;48.066;8.540;2022-12-31T09:51:35;1.42;;;1.00;;
21860;SDS011;11095;48.066;8.540;2022-12-31T09:54:32;1.45;;;1.30;;
21860;SDS011;11095;48.066;8.540;2022-12-31T09:57:24;1.77;;;1.00;;
21860;SDS011;11095;48.066;8.540;2022-12-31T10:05:21;0.85;;;0.68;;
21860;SDS011;11095;48.066;8.540;2022-12-31T10:10:33;1.58;;;0.80;;
21860;SDS011;11095;48.066;8.540;2022-12-31T10:21:57;1.40;;;0.80;;
21860;SDS011;11095;48.066;8.540;2022-12-31T10:30:20;1.05;;;0.85;;
21860;SDS011;11095;48.066;8.540;2022-12-31T10:35:42;1.42;;;0.82;;
21860;SDS011;11095;48.066;8.540;2022-12-31T10:55:09;0.80;;;0.75;;
21860;SDS011;11095;48.066;8.540;2022-12-31T11:15:06;1.50;;;1.10;;
21860;SDS011;11095;48.066;8.540;2022-12-31T11:17:39;2.25;;;1.08;;
21860;SDS011;11095;48.066;8.540;2022-12-31T11:20:32;1.08;;;0.77;;
21860;SDS011;11095;48.066;8.540;2022-12-31T11:34:11;1.88;;;0.90;;
21860;SDS011;11095;48.066;8.540;2022-12-31T11:48:03;1.08;;;0.93;;
21860;SDS011;11095;48.066;8.540;2022-12-31T11:53:28;1.50;;;1.30;;
21860;SDS011;11095;48.066;8.540;2022-12-31T11:56:16;1.90;;;1.15;;
21860;SDS011;11095;48.066;8.540;2022-12-31T11:58:50;0.85;;;0.80;;
21860;SDS011;11095;48.066;8.540;2022-12-31T12:01:18;2.42;;;1.20;;
21860;SDS011;11095;48.066;8.540;2022-12-31T12:03:50;1.70;;;1.00;;
21860;SDS011;11095;48.066;8.540;2022-12-31T12:06:16;1.27;;;1.17;;
21860;SDS011;11095;48.066;8.540;2022-12-31T12:08:47;2.30;;;1.70;;
21860;SDS011;11095;48.066;8.540;2022-12-31T12:11:17;2.35;;;1.67;;
21860;SDS011;11095;48.066;8.540;2022-12-31T12:13:47;1.38;;;1.23;;
21860;SDS011;11095;48.066;8.540;2022-12-31T12:16:13;2.10;;;1.50;;
21860;SDS011;11095;48.066;8.540;2022-12-31T12:18:47;1.30;;;1.20;;
21860;SDS011;11095;48.066;8.540;2022-12-31T12:24:02;1.55;;;1.10;;
21860;SDS011;11095;48.066;8.540;2022-12-31T12:26:35;1.63;;;1.17;;
21860;SDS011;11095;48.066;8.540;2022-12-31T12:29:10;2.85;;;1.35;;
21860;SDS011;11095;48.066;8.540;2022-12-31T12:31:36;1.60;;;1.20;;
21860;SDS011;11095;48.066;8.540;2022-12-31T12:34:02;1.45;;;1.30;;
21860;SDS011;11095;48.066;8.540;2022-12-31T12:36:29;2.28;;;1.50;;
21860;SDS011;11095;48.066;8.540;2022-12-31T12:38:59;1.85;;;1.20;;
21860;SDS011;11095;48.066;8.540;2022-12-31T12:41:26;1.20;;;1.10;;
21860;SDS011;11095;48.066;8.540;2022-12-31T12:44:05;1.33;;;1.00;;
21860;SDS011;11095;48.066;8.540;2022-12-31T12:46:34;3.15;;;1.20;;
21860;SDS011;11095;48.066;8.540;2022-12-31T12:49:13;1.30;;;1.20;;
21860;SDS011;11095;48.066;8.540;2022-12-31T12:54:37;2.10;;;1.20;;
21860;SDS011;11095;48.066;8.540;2022-12-31T12:57:21;1.45;;;1.17;;
21860;SDS011;11095;48.066;8.540;2022-12-31T13:00:03;1.20;;;1.10;;
21860;SDS011;11095;48.066;8.540;2022-12-31T13:14:30;2.65;;;1.30;;
21860;SDS011;11095;48.066;8.540;2022-12-31T13:20:13;1.58;;;1.15;;
21860;SDS011;11095;48.066;8.540;2022-12-31T13:28:39;1.95;;;1.30;;
21860;SDS011;11095;48.066;8.540;2022-12-31T13:31:12;1.88;;;1.10;;
21860;SDS011;11095;48.066;8.540;2022-12-31T13:33:43;1.30;;;1.00;;
21860;SDS011;11095;48.066;8.540;2022-12-31T13:36:18;1.90;;;1.45;;
21860;SDS011;11095;48.066;8.540;2022-12-31T13:38:48;1.52;;;1.10;;
21860;SDS011;11095;48.066;8.540;2022-12-31T13:43:59;2.28;;;1.02;;
21860;SDS011;11095;48.066;8.540;2022-12-31T13:46:47;1.85;;;1.20;;
21860;SDS011;11095;48.066;8.540;2022-12-31T13:52:59;0.93;;;0.82;;
21860;SDS011;11095;48.066;8.540;2022-12-31T13:55:29;1.55;;;1.30;;
21860;SDS011;11095;48.066;8.540;2022-12-31T14:09:03;2.10;;;1.30;;
21860;SDS011;11095;48.066;8.540;2022-12-31T14:17:02;2.00;;;1.55;;
21860;SDS011;11095;48.066;8.540;2022-12-31T14:19:57;2.03;;;1.50;;
21860;SDS011;11095;48.066;8.540;2022-12-31T14:22:30;1.65;;;1.42;;
21860;SDS011;11095;48.066;8.540;2022-12-31T14:25:02;2.17;;;1.40;;
21860;SDS011;11095;48.066;8.540;2022-12-31T14:27:35;2.15;;;1.60;;
21860;SDS011;11095;48.066;8.540;2022-12-31T14:30:08;2.58;;;1.83;;
21860;SDS011;11095;48.066;8.540;2022-12-31T14:35:25;3.08;;;2.40;;
21860;SDS011;11095;48.066;8.540;2022-12-31T14:41:11;3.03;;;2.20;;
21860;SDS011;11095;48.066;8.540;2022-12-31T14:49:17;5.97;;;2.00;;
21860;SDS011;11095;48.066;8.540;2022-12-31T14:52:06;4.32;;;2.15;;
21860;SDS011;11095;48.066;8.540;2022-12-31T14:54:34;2.85;;;1.77;;
21860;SDS011;11095;48.066;8.540;2022-12-31T15:00:19;1.85;;;1.60;;
21860;SDS011;11095;48.066;8.540;2022-12-31T15:02:58;1.88;;;1.40;;
21860;SDS011;11095;48.066;8.540;2022-12-31T15:05:50;2.17;;;1.58;;
21860;SDS011;11095;48.066;8.540;2022-12-31T15:08:30;1.95;;;1.48;;
21860;SDS011;11095;48.066;8.540;2022-12-31T15:22:05;2.22;;;1.60;;
21860;SDS011;11095;48.066;8.540;2022-12-31T15:24:45;2.22;;;1.60;;
21860;SDS011;11095;48.066;8.540;2022-12-31T15:32:56;2.38;;;2.00;;
21860;SDS011;11095;48.066;8.540;2022-12-31T15:35:28;4.07;;;2.40;;
21860;SDS011;11095;48.066;8.540;2022-12-31T15:40:42;1.88;;;1.63;;
21860;SDS011;11095;48.066;8.540;2022-12-31T15:43:08;2.63;;;1.85;;
21860;SDS011;11095;48.066;8.540;2022-12-31T15:45:49;3.10;;;2.00;;
21860;SDS011;11095;48.066;8.540;2022-12-31T15:48:18;3.53;;;2.00;;
21860;SDS011;11095;48.066;8.540;2022-12-31T15:50:50;3.65;;;2.05;;
21860;SDS011;11095;48.066;8.540;2022-12-31T15:53:30;4.18;;;2.13;;
21860;SDS011;11095;48.066;8.540;2022-12-31T15:56:00;2.65;;;1.90;;
21860;SDS011;11095;48.066;8.540;2022-12-31T15:58:27;1.92;;;1.80;;
21860;SDS011;11095;48.066;8.540;2022-12-31T16:01:09;3.03;;;2.10;;
21860;SDS011;11095;48.066;8.540;2022-12-31T16:03:42;2.83;;;2.22;;
21860;SDS011;11095;48.066;8.540;2022-12-31T16:06:12;3.97;;;3.20;;
21860;SDS011;11095;48.066;8.540;2022-12-31T16:08:42;5.20;;;3.42;;
21860;SDS011;11095;48.066;8.540;2022-12-31T16:11:10;6.65;;;5.00;;
21860;SDS011;11095;48.066;8.540;2022-12-31T16:13:38;4.07;;;3.13;;
21860;SDS011;11095;48.066;8.540;2022-12-31T16:16:14;6.97;;;4.18;;
21860;SDS011;11095;48.066;8.540;2022-12-31T16:18:46;3.60;;;2.90;;
21860;SDS011;11095;48.066;8.540;2022-12-31T16:21:27;3.55;;;2.72;;
21860;SDS011;11095;48.066;8.540;2022-12-31T16:23:59;4.68;;;3.72;;
21860;SDS011;11095;48.066;8.540;2022-12-31T16:26:43;4.80;;;3.70;;
21860;SDS011;11095;48.066;8.540;2022-12-31T16:29:12;5.22;;;3.13;;
21860;SDS011;11095;48.066;8.540;2022-12-31T16:31:41;3.47;;;2.70;;
21860;SDS011;11095;48.066;8.540;2022-12-31T16:34:17;3.08;;;2.47;;
21860;SDS011;11095;48.066;8.540;2022-12-31T16:36:56;3.10;;;2.70;;
21860;SDS011;11095;48.066;8.540;2022-12-31T16:39:30;3.60;;;3.20;;
21860;SDS011;11095;48.066;8.540;2022-12-31T16:42:17;5.25;;;4.55;;
21860;SDS011;11095;48.066;8.540;2022-12-31T16:44:49;5.72;;;4.55;;
21860;SDS011;11095;48.066;8.540;2022-12-31T16:47:18;6.10;;;4.20;;
21860;SDS011;11095;48.066;8.540;2022-12-31T16:52:30;10.05;;;6.18;;
21860;SDS011;11095;48.066;8.540;2022-12-31T16:55:00;12.27;;;7.60;;
21860;SDS011;11095;48.066;8.540;2022-12-31T16:57:38;8.07;;;6.20;;
21860;SDS011;11095;48.066;8.540;2022-12-31T17:00:13;6.40;;;4.95;;
21860;SDS011;11095;48.066;8.540;2022-12-31T17:02:41;5.88;;;4.40;;
21860;SDS011;11095;48.066;8.540;2022-12-31T17:05:19;8.15;;;6.10;;
21860;SDS011;11095;48.066;8.540;2022-12-31T17:07:49;7.60;;;6.18;;
21860;SDS011;11095;48.066;8.540;2022-12-31T17:12:56;5.93;;;4.30;;
21860;SDS011;11095;48.066;8.540;2022-12-31T17:15:24;4.20;;;3.80;;
21860;SDS011;11095;48.066;8.540;2022-12-31T17:17:54;5.35;;;3.50;;
21860;SDS011;11095;48.066;8.540;2022-12-31T17:20:26;5.40;;;4.05;;
21860;SDS011;11095;48.066;8.540;2022-12-31T17:22:55;4.53;;;3.55;;
21860;SDS011;11095;48.066;8.540;2022-12-31T17:25:24;5.60;;;4.45;;
21860;SDS011;11095;48.066;8.540;2022-12-31T17:27:54;5.20;;;3.83;;
21860;SDS011;11095;48.066;8.540;2022-12-31T17:35:53;6.18;;;4.88;;
21860;SDS011;11095;48.066;8.540;2022-12-31T17:40:53;4.45;;;3.60;;
21860;SDS011;11095;48.066;8.540;2022-12-31T17:43:29;4.55;;;3.60;;
21860;SDS011;11095;48.066;8.540;2022-12-31T17:46:00;6.38;;;4.32;;
21860;SDS011;11095;48.066;8.540;2022-12-31T17:48:27;6.30;;;4.38;;
21860;SDS011;11095;48.066;8.540;2022-12-31T17:50:54;5.88;;;4.47;;
21860;SDS011;11095;48.066;8.540;2022-12-31T17:53:22;5.43;;;4.05;;
21860;SDS011;11095;48.066;8.540;2022-12-31T17:55:49;7.07;;;4.50;;
21860;SDS011;11095;48.066;8.540;2022-12-31T17:58:19;4.47;;;3.72;;
21860;SDS011;11095;48.066;8.540;2022-12-31T18:00:52;8.13;;;5.60;;
21860;SDS011;11095;48.066;8.540;2022-12-31T18:03:18;6.05;;;5.07;;
21860;SDS011;11095;48.066;8.540;2022-12-31T18:05:44;9.10;;;6.80;;
21860;SDS011;11095;48.066;8.540;2022-12-31T18:08:10;7.43;;;5.70;;
21860;SDS011;11095;48.066;8.540;2022-12-31T18:10:36;8.02;;;5.10;;
21860;SDS011;11095;48.066;8.540;2022-12-31T18:13:04;7.72;;;5.75;;
21860;SDS011;11095;48.066;8.540;2022-12-31T18:15:31;6.63;;;5.32;;
21860;SDS011;11095;48.066;8.540;2022-12-31T18:17:57;7.22;;;5.30;;
21860;SDS011;11095;48.066;8.540;2022-12-31T18:20:23;5.75;;;4.50;;
21860;SDS011;11095;48.066;8.540;2022-12-31T18:22:49;5.50;;;4.43;;
21860;SDS011;11095;48.066;8.540;2022-12-31T18:25:19;8.60;;;6.30;;
21860;SDS011;11095;48.066;8.540;2022-12-31T18:27:47;7.63;;;5.40;;
21860;SDS011;11095;48.066;8.540;2022-12-31T18:30:14;7.20;;;5.00;;
21860;SDS011;11095;48.066;8.540;2022-12-31T18:32:40;11.70;;;7.88;;
21860;SDS011;11095;48.066;8.540;2022-12-31T18:35:14;9.18;;;6.82;;
21860;SDS011;11095;48.066;8.540;2022-12-31T18:37:42;8.85;;;5.95;;
21860;SDS011;11095;48.066;8.540;2022-12-31T18:40:08;10.45;;;7.78;;
21860;SDS011;11095;48.066;8.540;2022-12-31T18:42:35;10.18;;;7.38;;
21860;SDS011;11095;48.066;8.540;2022-12-31T18:45:01;8.65;;;6.60;;
21860;SDS011;11095;48.066;8.540;2022-12-31T18:47:27;8.88;;;6.40;;
21860;SDS011;11095;48.066;8.540;2022-12-31T18:49:53;9.90;;;6.82;;
21860;SDS011;11095;48.066;8.540;2022-12-31T18:52:19;13.55;;;10.27;;
21860;SDS011;11095;48.066;8.540;2022-12-31T18:54:46;16.58;;;12.27;;
21860;SDS011;11095;48.066;8.540;2022-12-31T18:57:14;8.48;;;6.72;;
21860;SDS011;11095;48.066;8.540;2022-12-31T18:59:40;8.45;;;6.47;;
21860;SDS011;11095;48.066;8.540;2022-12-31T19:02:17;12.07;;;7.88;;
21860;SDS011;11095;48.066;8.540;2022-12-31T19:04:44;11.73;;;8.52;;
21860;SDS011;11095;48.066;8.540;2022-12-31T19:07:11;9.68;;;7.32;;
21860;SDS011;11095;48.066;8.540;2022-12-31T19:09:37;9.05;;;6.88;;
21860;SDS011;11095;48.066;8.540;2022-12-31T19:12:02;10.80;;;8.13;;
21860;SDS011;11095;48.066;8.540;2022-12-31T19:14:29;18.63;;;12.65;;
21860;SDS011;11095;48.066;8.540;2022-12-31T19:16:54;12.52;;;9.15;;
21860;SDS011;11095;48.066;8.540;2022-12-31T19:19:22;10.65;;;7.07;;
21860;SDS011;11095;48.066;8.540;2022-12-31T19:21:48;8.80;;;6.50;;
21860;SDS011;11095;48.066;8.540;2022-12-31T19:24:14;7.20;;;5.32;;
21860;SDS011;11095;48.066;8.540;2022-12-31T19:26:44;7.80;;;6.13;;
21860;SDS011;11095;48.066;8.540;2022-12-31T19:29:21;7.40;;;5.68;;
21860;SDS011;11095;48.066;8.540;2022-12-31T19:31:48;7.75;;;6.05;;
21860;SDS011;11095;48.066;8.540;2022-12-31T19:34:14;7.88;;;5.78;;
21860;SDS011;11095;48.066;8.540;2022-12-31T19:36:40;6.72;;;4.55;;
21860;SDS011;11095;48.066;8.540;2022-12-31T19:39:06;6.35;;;4.60;;
21860;SDS011;11095;48.066;8.540;2022-12-31T19:41:35;8.18;;;4.93;;
21860;SDS011;11095;48.066;8.540;2022-12-31T19:44:01;7.20;;;4.60;;
21860;SDS011;11095;48.066;8.540;2022-12-31T19:46:27;5.95;;;4.57;;
21860;SDS011;11095;48.066;8.540;2022-12-31T19:48:52;9.02;;;6.40;;
21860;SDS011;11095;48.066;8.540;2022-12-31T19:51:18;18.55;;;14.95;;
21860;SDS011;11095;48.066;8.540;2022-12-31T19:53:46;20.50;;;14.95;;
21860;SDS011;11095;48.066;8.540;2022-12-31T19:56:14;13.68;;;8.98;;
21860;SDS011;11095;48.066;8.540;2022-12-31T19:58:41;10.02;;;7.28;;
21860;SDS011;11095;48.066;8.540;2022-12-31T20:01:06;9.13;;;7.03;;